North Platte Regional Airport Lee Bird Field
KLBF : now visible

Airfield :











YOU CAN JOIN US ON...

 
LOGIN :

Register | Disclaimer

   EN    FR    IT 

 









Legend :    VFR   Marginal VFR   IFR   Intensive IFR   Very Intensive IFR
Visi :
Ceiling :
>= 8 km
>= 3000ft
5 to 8 km
1000 to 3000 ft
1500m to 5 km
500 to 1000 ft
800 to 1500m
200 to 500 ft
< 800m
< 200 ft
Symbols :   Thunderstorms  Fog  Heavy snow  Heavy precipitations  Wind > 20 kt






- Airport Elevation : 2777 ft
- IATA code : LBF


KLBF - North Platte Regional Lee Bird Field

CURRENT METAR :
  • 192253Z AUTO 16005KT 10SM CLR 14/M01 A2974 RMK AO2 SLP077 T01441011

EXPIRED METARs :
  • 192153Z AUTO 15007KT 10SM CLR 16/M02 A2975 RMK AO2 SLP080 T01611017
  • 192053Z AUTO 18014G22KT 10SM CLR 16/M02 A2975 RMK AO2 SLP078 T01611017 56031
  • 191953Z AUTO 21014G21KT 10SM CLR 17/M02 A2977 RMK AO2 SLP083 T01671022

TAF KLBF
Valid from the 19 at 19:00 until the 20 at 18:00 UTC


191857Z 1919/2018 15012G19KT P6SM FEW250
FM200000 12008KT P6SM BKN250
FM201200 VRB04KT 4SM BR OVC010
FM201600 06006KT P6SM OVC015



MET'MAP, your aeronautical weather chart ! - Copyright ORBIFLY December 2007 - Disclaimer

ORBIFLY MET'MAP TEAM :

Programming & Development : Alexandra Zaïnal
Concept & Development : Baudouin d'Aumeries
Co-Development & Prog : Marc-Olivier Méhu
Technical & hardware support : Manuel Goepfert

Contact : metmap@orbifly.com




SOURCES & CREDITS :

   NOAA       Earth
Advisory